sensor_id;sensor_type;location;lat;lon;timestamp;pressure;altitude;pressure_sealevel;temperature;humidity
5062;BME280;2351;50.812;12.872;2023-04-04T00:02:29;99014.72;;;-0.69;70.42
5062;BME280;2351;50.812;12.872;2023-04-04T00:05:01;99011.28;;;-0.69;70.92
5062;BME280;2351;50.812;12.872;2023-04-04T00:07:34;99014.78;;;-0.70;71.19
5062;BME280;2351;50.812;12.872;2023-04-04T00:10:07;99014.78;;;-0.72;71.00
5062;BME280;2351;50.812;12.872;2023-04-04T00:12:39;99015.69;;;-0.73;70.66
5062;BME280;2351;50.812;12.872;2023-04-04T00:15:11;99010.53;;;-0.74;72.17
5062;BME280;2351;50.812;12.872;2023-04-04T00:17:42;99012.25;;;-0.75;73.73
5062;BME280;2351;50.812;12.872;2023-04-04T00:20:14;99001.84;;;-0.75;72.71
5062;BME280;2351;50.812;12.872;2023-04-04T00:22:47;99005.34;;;-0.76;72.59
5062;BME280;2351;50.812;12.872;2023-04-04T00:25:19;98994.94;;;-0.76;73.08
5062;BME280;2351;50.812;12.872;2023-04-04T00:27:51;98998.44;;;-0.77;74.49
5062;BME280;2351;50.812;12.872;2023-04-04T00:30:22;98991.56;;;-0.78;73.92
5062;BME280;2351;50.812;12.872;2023-04-04T00:32:54;98983.78;;;-0.80;76.99
5062;BME280;2351;50.812;12.872;2023-04-04T00:35:26;98993.34;;;-0.82;76.15
5062;BME280;2351;50.812;12.872;2023-04-04T00:37:59;98991.63;;;-0.83;75.70
5062;BME280;2351;50.812;12.872;2023-04-04T00:40:31;98990.78;;;-0.83;75.63
5062;BME280;2351;50.812;12.872;2023-04-04T00:43:02;98989.09;;;-0.84;77.40
5062;BME280;2351;50.812;12.872;2023-04-04T00:45:34;98985.66;;;-0.86;78.53
5062;BME280;2351;50.812;12.872;2023-04-04T00:48:06;98993.47;;;-0.86;78.25
5062;BME280;2351;50.812;12.872;2023-04-04T00:50:38;98982.25;;;-0.88;77.56
5062;BME280;2351;50.812;12.872;2023-04-04T00:53:12;98981.41;;;-0.91;78.80
5062;BME280;2351;50.812;12.872;2023-04-04T00:55:43;98979.69;;;-0.90;78.19
5062;BME280;2351;50.812;12.872;2023-04-04T00:58:15;98985.72;;;-0.89;78.41
5062;BME280;2351;50.812;12.872;2023-04-04T01:00:48;98988.38;;;-0.91;79.35
5062;BME280;2351;50.812;12.872;2023-04-04T01:03:20;98990.09;;;-0.92;79.44
5062;BME280;2351;50.812;12.872;2023-04-04T01:05:53;98988.38;;;-0.93;79.08
5062;BME280;2351;50.812;12.872;2023-04-04T01:08:27;98987.50;;;-0.92;78.77
5062;BME280;2351;50.812;12.872;2023-04-04T01:11:00;98987.50;;;-0.92;80.55
5062;BME280;2351;50.812;12.872;2023-04-04T01:13:31;98986.66;;;-0.92;80.76
5062;BME280;2351;50.812;12.872;2023-04-04T01:16:04;98986.69;;;-0.94;81.60
5062;BME280;2351;50.812;12.872;2023-04-04T01:18:37;98981.47;;;-0.94;82.33
5062;BME280;2351;50.812;12.872;2023-04-04T01:21:11;98978.00;;;-0.93;81.12
5062;BME280;2351;50.812;12.872;2023-04-04T01:23:51;98968.47;;;-0.94;80.56
5062;BME280;2351;50.812;12.872;2023-04-04T01:26:30;98975.41;;;-0.93;81.84
5062;BME280;2351;50.812;12.872;2023-04-04T01:29:02;98971.97;;;-0.95;82.36
5062;BME280;2351;50.812;12.872;2023-04-04T01:31:36;98969.38;;;-0.95;83.31
5062;BME280;2351;50.812;12.872;2023-04-04T01:34:12;98956.38;;;-0.95;83.85
5062;BME280;2351;50.812;12.872;2023-04-04T01:36:53;98963.34;;;-0.97;84.25
5062;BME280;2351;50.812;12.872;2023-04-04T01:39:31;98954.72;;;-0.97;83.64
5062;BME280;2351;50.812;12.872;2023-04-04T01:42:08;98951.22;;;-0.96;83.48
5062;BME280;2351;50.812;12.872;2023-04-04T01:44:41;98952.13;;;-0.97;84.28
5062;BME280;2351;50.812;12.872;2023-04-04T01:47:12;98954.72;;;-0.99;85.91
5062;BME280;2351;50.812;12.872;2023-04-04T01:49:44;98949.63;;;-1.02;86.67
5062;BME280;2351;50.812;12.872;2023-04-04T01:52:16;98957.44;;;-1.03;86.79
5062;BME280;2351;50.812;12.872;2023-04-04T01:54:48;98952.28;;;-1.05;87.41
5062;BME280;2351;50.812;12.872;2023-04-04T01:57:21;98952.25;;;-1.03;85.95
5062;BME280;2351;50.812;12.872;2023-04-04T01:59:53;98948.81;;;-1.06;86.20
5062;BME280;2351;50.812;12.872;2023-04-04T02:02:25;98950.59;;;-1.06;86.86
5062;BME280;2351;50.812;12.872;2023-04-04T02:04:56;98952.34;;;-1.08;87.57
5062;BME280;2351;50.812;12.872;2023-04-04T02:07:28;98942.81;;;-1.08;87.35
5062;BME280;2351;50.812;12.872;2023-04-04T02:10:00;98948.00;;;-1.08;88.91
5062;BME280;2351;50.812;12.872;2023-04-04T02:12:33;98948.13;;;-1.12;89.38
5062;BME280;2351;50.812;12.872;2023-04-04T02:15:05;98942.06;;;-1.13;89.29
5062;BME280;2351;50.812;12.872;2023-04-04T02:17:37;98943.91;;;-1.18;90.68
5062;BME280;2351;50.812;12.872;2023-04-04T02:20:09;98937.00;;;-1.19;90.54
5062;BME280;2351;50.812;12.872;2023-04-04T02:22:41;98942.28;;;-1.22;90.38
5062;BME280;2351;50.812;12.872;2023-04-04T02:25:13;98937.03;;;-1.21;90.28
5062;BME280;2351;50.812;12.872;2023-04-04T02:27:46;98944.09;;;-1.26;91.08
5062;BME280;2351;50.812;12.872;2023-04-04T02:30:18;98942.31;;;-1.24;90.30
5062;BME280;2351;50.812;12.872;2023-04-04T02:32:50;98937.25;;;-1.30;91.39
5062;BME280;2351;50.812;12.872;2023-04-04T02:35:22;98937.19;;;-1.27;91.10
5062;BME280;2351;50.812;12.872;2023-04-04T02:37:53;98938.13;;;-1.31;92.39
5062;BME280;2351;50.812;12.872;2023-04-04T02:40:25;98931.22;;;-1.32;91.69
5062;BME280;2351;50.812;12.872;2023-04-04T02:42:58;98927.84;;;-1.35;92.41
5062;BME280;2351;50.812;12.872;2023-04-04T02:45:30;98928.81;;;-1.41;94.08
5062;BME280;2351;50.812;12.872;2023-04-04T02:48:02;98934.91;;;-1.42;93.94
5062;BME280;2351;50.812;12.872;2023-04-04T02:50:33;98924.50;;;-1.42;93.84
5062;BME280;2351;50.812;12.872;2023-04-04T02:53:05;98935.78;;;-1.42;93.53
5062;BME280;2351;50.812;12.872;2023-04-04T02:55:37;98932.34;;;-1.44;94.23
5062;BME280;2351;50.812;12.872;2023-04-04T02:58:10;98929.75;;;-1.44;93.89
5062;BME280;2351;50.812;12.872;2023-04-04T03:00:42;98928.22;;;-1.54;95.04
5062;BME280;2351;50.812;12.872;2023-04-04T03:03:16;98929.91;;;-1.52;95.41
5062;BME280;2351;50.812;12.872;2023-04-04T03:05:48;98929.00;;;-1.49;94.74
5062;BME280;2351;50.812;12.872;2023-04-04T03:08:20;98918.53;;;-1.44;95.02
5062;BME280;2351;50.812;12.872;2023-04-04T03:10:52;98921.97;;;-1.44;95.51
5062;BME280;2351;50.812;12.872;2023-04-04T03:13:25;98915.84;;;-1.41;94.86
5062;BME280;2351;50.812;12.872;2023-04-04T03:15:58;98921.13;;;-1.44;95.35
5062;BME280;2351;50.812;12.872;2023-04-04T03:18:32;98915.19;;;-1.51;96.38
5062;BME280;2351;50.812;12.872;2023-04-04T03:21:03;98919.59;;;-1.55;96.92
5062;BME280;2351;50.812;12.872;2023-04-04T03:23:35;98909.22;;;-1.55;96.05
5062;BME280;2351;50.812;12.872;2023-04-04T03:26:07;98905.78;;;-1.57;96.57
5062;BME280;2351;50.812;12.872;2023-04-04T03:28:41;98913.56;;;-1.57;97.14
5062;BME280;2351;50.812;12.872;2023-04-04T03:31:13;98903.19;;;-1.55;96.44
5062;BME280;2351;50.812;12.872;2023-04-04T03:33:44;98909.16;;;-1.52;96.21
5062;BME280;2351;50.812;12.872;2023-04-04T03:36:16;98903.13;;;-1.54;97.10
5062;BME280;2351;50.812;12.872;2023-04-04T03:38:48;98903.19;;;-1.57;97.29
5062;BME280;2351;50.812;12.872;2023-04-04T03:41:20;98905.78;;;-1.57;96.65
5062;BME280;2351;50.812;12.872;2023-04-04T03:43:53;98901.47;;;-1.58;97.33
5062;BME280;2351;50.812;12.872;2023-04-04T03:46:24;98897.16;;;-1.59;96.81
5062;BME280;2351;50.812;12.872;2023-04-04T03:48:56;98904.13;;;-1.61;97.75
5062;BME280;2351;50.812;12.872;2023-04-04T03:51:28;98897.22;;;-1.60;97.28
5062;BME280;2351;50.812;12.872;2023-04-04T03:53:59;98896.28;;;-1.58;97.24
5062;BME280;2351;50.812;12.872;2023-04-04T03:56:31;98896.28;;;-1.56;96.67
5062;BME280;2351;50.812;12.872;2023-04-04T03:59:04;98897.97;;;-1.55;97.77
5062;BME280;2351;50.812;12.872;2023-04-04T04:01:37;98896.28;;;-1.56;97.61
5062;BME280;2351;50.812;12.872;2023-04-04T04:04:08;98896.28;;;-1.58;97.39
5062;BME280;2351;50.812;12.872;2023-04-04T04:06:40;98887.72;;;-1.63;98.07
5062;BME280;2351;50.812;12.872;2023-04-04T04:09:13;98898.16;;;-1.64;98.29
5062;BME280;2351;50.812;12.872;2023-04-04T04:11:45;98893.81;;;-1.64;98.25
5062;BME280;2351;50.812;12.872;2023-04-04T04:14:18;98898.13;;;-1.63;98.01
5062;BME280;2351;50.812;12.872;2023-04-04T04:16:50;98894.69;;;-1.63;98.02
5062;BME280;2351;50.812;12.872;2023-04-04T04:19:21;98892.09;;;-1.63;99.01
5062;BME280;2351;50.812;12.872;2023-04-04T04:21:53;98889.44;;;-1.60;97.61
5062;BME280;2351;50.812;12.872;2023-04-04T04:24:25;98892.84;;;-1.58;97.65
5062;BME280;2351;50.812;12.872;2023-04-04T04:26:56;98901.41;;;-1.55;97.55
5062;BME280;2351;50.812;12.872;2023-04-04T04:29:29;98888.44;;;-1.55;98.13
5062;BME280;2351;50.812;12.872;2023-04-04T04:32:01;98891.09;;;-1.58;97.81
5062;BME280;2351;50.812;12.872;2023-04-04T04:34:33;98897.09;;;-1.56;97.50
5062;BME280;2351;50.812;12.872;2023-04-04T04:37:04;98895.41;;;-1.57;98.31
5062;BME280;2351;50.812;12.872;2023-04-04T04:39:36;98892.09;;;-1.65;98.34
5062;BME280;2351;50.812;12.872;2023-04-04T04:42:08;98895.69;;;-1.69;98.62
5062;BME280;2351;50.812;12.872;2023-04-04T04:44:41;98891.38;;;-1.72;99.13
5062;BME280;2351;50.812;12.872;2023-04-04T04:47:13;98891.38;;;-1.70;98.80
5062;BME280;2351;50.812;12.872;2023-04-04T04:49:45;98896.50;;;-1.69;99.23
5062;BME280;2351;50.812;12.872;2023-04-04T04:52:18;98894.78;;;-1.68;98.91
5062;BME280;2351;50.812;12.872;2023-04-04T04:54:50;98884.31;;;-1.65;99.16
5062;BME280;2351;50.812;12.872;2023-04-04T04:57:25;98895.63;;;-1.66;98.47
5062;BME280;2351;50.812;12.872;2023-04-04T04:59:58;98901.69;;;-1.67;99.05
5062;BME280;2351;50.812;12.872;2023-04-04T05:02:30;98902.63;;;-1.71;99.61
5062;BME280;2351;50.812;12.872;2023-04-04T05:05:01;98904.31;;;-1.69;99.53
5062;BME280;2351;50.812;12.872;2023-04-04T05:07:33;98907.78;;;-1.68;100.00
5062;BME280;2351;50.812;12.872;2023-04-04T05:10:06;98915.56;;;-1.68;100.00
5062;BME280;2351;50.812;12.872;2023-04-04T05:12:41;98916.41;;;-1.68;100.00
5062;BME280;2351;50.812;12.872;2023-04-04T05:15:15;98919.88;;;-1.69;100.00
5062;BME280;2351;50.812;12.872;2023-04-04T05:17:47;98922.53;;;-1.70;100.00
5062;BME280;2351;50.812;12.872;2023-04-04T05:20:19;98923.31;;;-1.67;100.00
5062;BME280;2351;50.812;12.872;2023-04-04T05:22:51;98925.13;;;-1.70;100.00
5062;BME280;2351;50.812;12.872;2023-04-04T05:25:22;98923.25;;;-1.65;100.00
5062;BME280;2351;50.812;12.872;2023-04-04T05:27:54;98924.06;;;-1.61;100.00
5062;BME280;2351;50.812;12.872;2023-04-04T05:30:29;98934.41;;;-1.58;100.00
5062;BME280;2351;50.812;12.872;2023-04-04T05:33:01;98929.13;;;-1.55;100.00
5062;BME280;2351;50.812;12.872;2023-04-04T05:35:33;98928.28;;;-1.56;100.00
5062;BME280;2351;50.812;12.872;2023-04-04T05:38:05;98929.91;;;-1.52;100.00
5062;BME280;2351;50.812;12.872;2023-04-04T05:40:36;98937.81;;;-1.58;100.00
5062;BME280;2351;50.812;12.872;2023-04-04T05:43:08;98937.88;;;-1.61;100.00
5062;BME280;2351;50.812;12.872;2023-04-04T05:45:41;98943.03;;;-1.58;100.00
5062;BME280;2351;50.812;12.872;2023-04-04T05:48:13;98936.88;;;-1.54;100.00
5062;BME280;2351;50.812;12.872;2023-04-04T05:50:45;98939.41;;;-1.50;100.00
5062;BME280;2351;50.812;12.872;2023-04-04T05:53:17;98931.63;;;-1.50;100.00
5062;BME280;2351;50.812;12.872;2023-04-04T05:55:50;98935.06;;;-1.48;100.00
5062;BME280;2351;50.812;12.872;2023-04-04T05:58:23;98939.38;;;-1.47;100.00
5062;BME280;2351;50.812;12.872;2023-04-04T06:00:57;98936.75;;;-1.47;100.00
5062;BME280;2351;50.812;12.872;2023-04-04T06:03:28;98937.66;;;-1.50;100.00
5062;BME280;2351;50.812;12.872;2023-04-04T06:06:00;98945.59;;;-1.56;100.00
5062;BME280;2351;50.812;12.872;2023-04-04T06:08:33;98942.78;;;-1.47;100.00
5062;BME280;2351;50.812;12.872;2023-04-04T06:11:05;98943.53;;;-1.40;100.00
5062;BME280;2351;50.812;12.872;2023-04-04T06:13:37;98939.03;;;-1.32;100.00
5062;BME280;2351;50.812;12.872;2023-04-04T06:16:10;98945.03;;;-1.30;100.00
5062;BME280;2351;50.812;12.872;2023-04-04T06:18:42;98936.25;;;-1.23;100.00
5062;BME280;2351;50.812;12.872;2023-04-04T06:21:13;98939.59;;;-1.19;100.00
5062;BME280;2351;50.812;12.872;2023-04-04T06:23:45;98941.97;;;-1.08;100.00
5062;BME280;2351;50.812;12.872;2023-04-04T06:26:17;98941.00;;;-1.04;100.00
5062;BME280;2351;50.812;12.872;2023-04-04T06:28:49;98936.66;;;-1.03;100.00
5062;BME280;2351;50.812;12.872;2023-04-04T06:31:23;98937.28;;;-0.94;100.00
5062;BME280;2351;50.812;12.872;2023-04-04T06:33:54;98935.50;;;-0.92;100.00
5062;BME280;2351;50.812;12.872;2023-04-04T06:36:26;98931.19;;;-0.91;100.00
5062;BME280;2351;50.812;12.872;2023-04-04T06:38:58;98937.94;;;-0.84;100.00
5062;BME280;2351;50.812;12.872;2023-04-04T06:41:29;98939.63;;;-0.81;100.00
5062;BME280;2351;50.812;12.872;2023-04-04T06:44:01;98939.56;;;-0.80;99.59
5062;BME280;2351;50.812;12.872;2023-04-04T06:46:35;98929.81;;;-0.70;100.00
5062;BME280;2351;50.812;12.872;2023-04-04T06:49:08;98926.88;;;-0.56;100.00
5062;BME280;2351;50.812;12.872;2023-04-04T06:51:40;98936.09;;;-0.44;100.00
5062;BME280;2351;50.812;12.872;2023-04-04T06:54:12;98934.72;;;-0.24;100.00
5062;BME280;2351;50.812;12.872;2023-04-04T06:56:44;98931.56;;;-0.36;97.78
5062;BME280;2351;50.812;12.872;2023-04-04T06:59:15;98936.44;;;0.10;100.00
5062;BME280;2351;50.812;12.872;2023-04-04T07:01:49;98936.00;;;0.85;100.00
5062;BME280;2351;50.812;12.872;2023-04-04T07:04:20;98929.53;;;1.26;100.00
5062;BME280;2351;50.812;12.872;2023-04-04T07:06:52;98921.28;;;1.11;95.81
5062;BME280;2351;50.812;12.872;2023-04-04T07:09:24;98922.28;;;1.07;96.23
5062;BME280;2351;50.812;12.872;2023-04-04T07:11:57;98921.38;;;1.08;96.21
5062;BME280;2351;50.812;12.872;2023-04-04T07:14:29;98928.41;;;1.06;96.27
5062;BME280;2351;50.812;12.872;2023-04-04T07:17:02;98921.88;;;0.93;94.13
5062;BME280;2351;50.812;12.872;2023-04-04T07:19:34;98932.50;;;0.86;93.23
5062;BME280;2351;50.812;12.872;2023-04-04T07:22:05;98926.31;;;0.60;90.22
5062;BME280;2351;50.812;12.872;2023-04-04T07:24:37;98932.72;;;0.79;94.10
5062;BME280;2351;50.812;12.872;2023-04-04T07:27:09;98937.22;;;1.02;94.07
5062;BME280;2351;50.812;12.872;2023-04-04T07:29:41;98933.09;;;1.23;93.76
5062;BME280;2351;50.812;12.872;2023-04-04T07:32:14;98931.13;;;1.30;94.75
5062;BME280;2351;50.812;12.872;2023-04-04T07:34:45;98934.81;;;1.51;94.62
5062;BME280;2351;50.812;12.872;2023-04-04T07:37:18;98930.84;;;1.39;84.09
5062;BME280;2351;50.812;12.872;2023-04-04T07:39:50;98932.94;;;1.28;90.01
5062;BME280;2351;50.812;12.872;2023-04-04T07:42:22;98939.22;;;0.94;84.19
5062;BME280;2351;50.812;12.872;2023-04-04T07:44:54;98943.56;;;1.22;88.07
5062;BME280;2351;50.812;12.872;2023-04-04T07:47:27;98932.00;;;1.02;83.13
5062;BME280;2351;50.812;12.872;2023-04-04T07:49:59;98922.72;;;1.99;91.18
5062;BME280;2351;50.812;12.872;2023-04-04T07:52:30;98919.44;;;3.32;83.36
5062;BME280;2351;50.812;12.872;2023-04-04T07:55:03;98916.69;;;2.92;74.37
5062;BME280;2351;50.812;12.872;2023-04-04T07:57:37;98920.88;;;3.61;80.79
5062;BME280;2351;50.812;12.872;2023-04-04T08:00:10;98911.56;;;4.55;82.67
5062;BME280;2351;50.812;12.872;2023-04-04T08:02:43;98911.50;;;5.49;62.15
5062;BME280;2351;50.812;12.872;2023-04-04T08:05:15;98908.94;;;5.65;65.99
5062;BME280;2351;50.812;12.872;2023-04-04T08:07:47;98915.28;;;5.78;63.13
5062;BME280;2351;50.812;12.872;2023-04-04T08:10:19;98906.69;;;6.10;64.32
5062;BME280;2351;50.812;12.872;2023-04-04T08:12:51;98907.75;;;5.88;59.83
5062;BME280;2351;50.812;12.872;2023-04-04T08:15:23;98908.34;;;5.05;54.70
5062;BME280;2351;50.812;12.872;2023-04-04T08:17:56;98907.72;;;4.24;57.46
5062;BME280;2351;50.812;12.872;2023-04-04T08:20:28;98909.06;;;3.92;61.13
5062;BME280;2351;50.812;12.872;2023-04-04T08:22:59;98907.66;;;3.85;60.37
5062;BME280;2351;50.812;12.872;2023-04-04T08:25:31;98912.22;;;3.59;59.89
5062;BME280;2351;50.812;12.872;2023-04-04T08:28:04;98913.25;;;3.35;62.04
5062;BME280;2351;50.812;12.872;2023-04-04T08:30:35;98911.41;;;3.37;62.15
5062;BME280;2351;50.812;12.872;2023-04-04T08:33:08;98907.31;;;3.09;61.81
5062;BME280;2351;50.812;12.872;2023-04-04T08:35:40;98911.31;;;3.17;62.80
5062;BME280;2351;50.812;12.872;2023-04-04T08:38:12;98914.00;;;2.71;61.24
5062;BME280;2351;50.812;12.872;2023-04-04T08:40:45;98916.16;;;2.60;60.92
5062;BME280;2351;50.812;12.872;2023-04-04T08:43:18;98902.66;;;2.49;60.59
5062;BME280;2351;50.812;12.872;2023-04-04T08:45:52;98919.47;;;2.41;59.78
5062;BME280;2351;50.812;12.872;2023-04-04T08:48:26;98912.72;;;2.36;60.40
5062;BME280;2351;50.812;12.872;2023-04-04T08:50:59;98907.06;;;2.70;62.23
5062;BME280;2351;50.812;12.872;2023-04-04T08:53:35;98908.66;;;2.97;61.66
5062;BME280;2351;50.812;12.872;2023-04-04T08:56:07;98917.34;;;2.51;56.51
5062;BME280;2351;50.812;12.872;2023-04-04T08:58:39;98910.09;;;2.60;58.32
5062;BME280;2351;50.812;12.872;2023-04-04T09:01:11;98911.31;;;2.49;56.66
5062;BME280;2351;50.812;12.872;2023-04-04T09:03:44;98911.53;;;2.67;57.99
5062;BME280;2351;50.812;12.872;2023-04-04T09:06:16;98907.78;;;3.19;59.04
5062;BME280;2351;50.812;12.872;2023-04-04T09:08:49;98907.66;;;3.22;58.01
5062;BME280;2351;50.812;12.872;2023-04-04T09:11:23;98906.19;;;2.70;53.63
5062;BME280;2351;50.812;12.872;2023-04-04T09:13:56;98905.00;;;2.55;56.65
5062;BME280;2351;50.812;12.872;2023-04-04T09:16:29;98905.81;;;2.33;56.08
5062;BME280;2351;50.812;12.872;2023-04-04T09:19:02;98913.69;;;2.08;56.99
5062;BME280;2351;50.812;12.872;2023-04-04T09:21:34;98909.47;;;2.05;57.75
5062;BME280;2351;50.812;12.872;2023-04-04T09:24:09;98909.59;;;2.26;58.65
5062;BME280;2351;50.812;12.872;2023-04-04T09:26:46;98908.78;;;2.48;57.80
5062;BME280;2351;50.812;12.872;2023-04-04T09:29:19;98902.19;;;2.14;57.73
5062;BME280;2351;50.812;12.872;2023-04-04T09:31:51;98899.13;;;2.26;58.30
5062;BME280;2351;50.812;12.872;2023-04-04T09:34:24;98895.34;;;2.57;58.22
5062;BME280;2351;50.812;12.872;2023-04-04T09:36:56;98897.88;;;2.36;58.09
5062;BME280;2351;50.812;12.872;2023-04-04T09:39:29;98902.94;;;2.41;56.33
5062;BME280;2351;50.812;12.872;2023-04-04T09:42:02;98898.25;;;2.49;56.94
5062;BME280;2351;50.812;12.872;2023-04-04T09:44:34;98898.00;;;3.01;58.69
5062;BME280;2351;50.812;12.872;2023-04-04T09:47:22;98891.91;;;3.44;53.58
5062;BME280;2351;50.812;12.872;2023-04-04T09:49:58;98899.75;;;3.23;50.96
5062;BME280;2351;50.812;12.872;2023-04-04T09:52:31;98902.13;;;3.29;51.66
5062;BME280;2351;50.812;12.872;2023-04-04T09:55:05;98901.41;;;3.04;52.17
5062;BME280;2351;50.812;12.872;2023-04-04T09:57:37;98910.59;;;2.69;52.76
5062;BME280;2351;50.812;12.872;2023-04-04T10:00:11;98909.22;;;2.59;54.84
5062;BME280;2351;50.812;12.872;2023-04-04T10:02:46;98912.59;;;2.63;55.59
5062;BME280;2351;50.812;12.872;2023-04-04T10:05:19;98912.91;;;2.30;53.96
5062;BME280;2351;50.812;12.872;2023-04-04T10:07:51;98914.41;;;2.37;54.00
5062;BME280;2351;50.812;12.872;2023-04-04T10:10:23;98918.63;;;2.17;54.40
5062;BME280;2351;50.812;12.872;2023-04-04T10:12:57;98910.13;;;2.34;54.72
5062;BME280;2351;50.812;12.872;2023-04-04T10:15:34;98910.88;;;2.62;54.18
5062;BME280;2351;50.812;12.872;2023-04-04T10:18:07;98905.22;;;2.95;54.82
5062;BME280;2351;50.812;12.872;2023-04-04T10:20:41;98912.13;;;2.97;53.97
5062;BME280;2351;50.812;12.872;2023-04-04T10:23:13;98902.22;;;2.83;53.64
5062;BME280;2351;50.812;12.872;2023-04-04T10:25:46;98904.75;;;2.85;53.02
5062;BME280;2351;50.812;12.872;2023-04-04T10:28:18;98906.78;;;2.54;52.37
5062;BME280;2351;50.812;12.872;2023-04-04T10:30:58;98907.66;;;2.31;52.23
5062;BME280;2351;50.812;12.872;2023-04-04T10:33:38;98911.38;;;2.00;51.22
5062;BME280;2351;50.812;12.872;2023-04-04T10:36:13;98912.00;;;2.07;51.96
5062;BME280;2351;50.812;12.872;2023-04-04T10:38:54;98907.47;;;2.12;51.57
5062;BME280;2351;50.812;12.872;2023-04-04T10:41:29;98899.63;;;2.60;53.17
5062;BME280;2351;50.812;12.872;2023-04-04T10:44:11;98893.31;;;3.10;51.42
5062;BME280;2351;50.812;12.872;2023-04-04T10:46:46;98896.09;;;3.27;52.23
5062;BME280;2351;50.812;12.872;2023-04-04T10:49:22;98901.47;;;3.45;49.89
5062;BME280;2351;50.812;12.872;2023-04-04T10:51:56;98899.94;;;3.19;49.65
5062;BME280;2351;50.812;12.872;2023-04-04T10:54:28;98904.50;;;3.13;48.82
5062;BME280;2351;50.812;12.872;2023-04-04T10:57:00;98897.47;;;2.47;50.44
5062;BME280;2351;50.812;12.872;2023-04-04T10:59:33;98894.06;;;2.45;51.68
5062;BME280;2351;50.812;12.872;2023-04-04T11:02:04;98882.16;;;2.60;52.59
5062;BME280;2351;50.812;12.872;2023-04-04T11:04:37;98890.06;;;2.59;53.00
5062;BME280;2351;50.812;12.872;2023-04-04T11:07:16;98879.56;;;2.60;53.12
5062;BME280;2351;50.812;12.872;2023-04-04T11:09:49;98878.16;;;2.96;53.70
5062;BME280;2351;50.812;12.872;2023-04-04T11:12:27;98878.16;;;3.18;52.42
5062;BME280;2351;50.812;12.872;2023-04-04T11:15:06;98885.94;;;3.20;51.24
5062;BME280;2351;50.812;12.872;2023-04-04T11:17:58;98882.81;;;2.89;49.96
5062;BME280;2351;50.812;12.872;2023-04-04T11:20:32;98873.38;;;2.63;49.44
5062;BME280;2351;50.812;12.872;2023-04-04T11:23:14;98875.22;;;2.59;49.69
5062;BME280;2351;50.812;12.872;2023-04-04T11:25:50;98876.03;;;2.61;49.63
5062;BME280;2351;50.812;12.872;2023-04-04T11:28:27;98876.84;;;2.85;49.74
5062;BME280;2351;50.812;12.872;2023-04-04T11:31:24;98868.13;;;3.07;49.70
5062;BME280;2351;50.812;12.872;2023-04-04T11:33:58;98871.41;;;3.12;48.86
5062;BME280;2351;50.812;12.872;2023-04-04T11:36:51;98861.03;;;3.73;49.07
5062;BME280;2351;50.812;12.872;2023-04-04T11:39:26;98872.97;;;3.39;45.81
5062;BME280;2351;50.812;12.872;2023-04-04T11:42:01;98862.75;;;3.33;46.41
5062;BME280;2351;50.812;12.872;2023-04-04T11:44:40;98861.06;;;3.09;46.76
5062;BME280;2351;50.812;12.872;2023-04-04T11:47:12;98857.63;;;3.71;49.89
5062;BME280;2351;50.812;12.872;2023-04-04T11:49:45;98854.00;;;3.94;47.91
5062;BME280;2351;50.812;12.872;2023-04-04T11:52:17;98847.47;;;3.84;47.24
5062;BME280;2351;50.812;12.872;2023-04-04T11:54:50;98847.94;;;3.73;47.65
5062;BME280;2351;50.812;12.872;2023-04-04T11:57:22;98849.31;;;3.61;48.04
5062;BME280;2351;50.812;12.872;2023-04-04T11:59:54;98847.81;;;2.92;48.65
5062;BME280;2351;50.812;12.872;2023-04-04T12:02:26;98854.97;;;3.09;49.42
5062;BME280;2351;50.812;12.872;2023-04-04T12:05:01;98847.59;;;3.19;49.39
5062;BME280;2351;50.812;12.872;2023-04-04T12:07:34;98840.44;;;3.44;49.63
5062;BME280;2351;50.812;12.872;2023-04-04T12:10:08;98838.44;;;3.91;48.32
5062;BME280;2351;50.812;12.872;2023-04-04T12:12:41;98834.75;;;4.14;47.70
5062;BME280;2351;50.812;12.872;2023-04-04T12:15:13;98830.88;;;4.04;44.42
5062;BME280;2351;50.812;12.872;2023-04-04T12:17:45;98824.78;;;4.22;46.66
5062;BME280;2351;50.812;12.872;2023-04-04T12:20:21;98824.78;;;4.78;46.48
5062;BME280;2351;50.812;12.872;2023-04-04T12:22:52;98819.31;;;5.37;47.16
5062;BME280;2351;50.812;12.872;2023-04-04T12:25:26;98830.63;;;4.85;42.80
5062;BME280;2351;50.812;12.872;2023-04-04T12:28:03;98829.53;;;4.14;43.65
5062;BME280;2351;50.812;12.872;2023-04-04T12:30:37;98838.13;;;3.78;43.22
5062;BME280;2351;50.812;12.872;2023-04-04T12:33:09;98832.69;;;3.62;45.05
5062;BME280;2351;50.812;12.872;2023-04-04T12:35:50;98820.25;;;4.07;44.64
5062;BME280;2351;50.812;12.872;2023-04-04T12:38:21;98822.88;;;4.26;44.35
5062;BME280;2351;50.812;12.872;2023-04-04T12:40:56;98820.47;;;4.41;43.48
5062;BME280;2351;50.812;12.872;2023-04-04T12:43:28;98806.00;;;4.32;42.69
5062;BME280;2351;50.812;12.872;2023-04-04T12:45:59;98808.72;;;4.30;43.66
5062;BME280;2351;50.812;12.872;2023-04-04T12:48:33;98798.41;;;4.64;44.05
5062;BME280;2351;50.812;12.872;2023-04-04T12:51:06;98802.06;;;5.14;43.08
5062;BME280;2351;50.812;12.872;2023-04-04T12:53:50;98794.44;;;5.27;42.17
5062;BME280;2351;50.812;12.872;2023-04-04T12:56:26;98802.94;;;5.15;41.55
5062;BME280;2351;50.812;12.872;2023-04-04T12:58:59;98799.06;;;4.87;42.48
5062;BME280;2351;50.812;12.872;2023-04-04T13:01:36;98787.25;;;5.13;42.16
5062;BME280;2351;50.812;12.872;2023-04-04T13:04:08;98796.72;;;4.98;40.98
5062;BME280;2351;50.812;12.872;2023-04-04T13:06:43;98792.69;;;4.36;42.66
5062;BME280;2351;50.812;12.872;2023-04-04T13:09:16;98783.88;;;4.57;44.56
5062;BME280;2351;50.812;12.872;2023-04-04T13:11:58;98786.19;;;5.00;43.33
5062;BME280;2351;50.812;12.872;2023-04-04T13:14:58;98783.59;;;4.98;42.35
5062;BME280;2351;50.812;12.872;2023-04-04T13:17:41;98775.22;;;5.26;41.88
5062;BME280;2351;50.812;12.872;2023-04-04T13:20:15;98764.09;;;5.72;43.11
5062;BME280;2351;50.812;12.872;2023-04-04T13:22:47;98776.47;;;5.86;40.74
5062;BME280;2351;50.812;12.872;2023-04-04T13:25:19;98771.69;;;5.61;40.68
5062;BME280;2351;50.812;12.872;2023-04-04T13:27:52;98776.53;;;5.18;40.65
5062;BME280;2351;50.812;12.872;2023-04-04T13:30:25;98770.66;;;4.41;41.28
5062;BME280;2351;50.812;12.872;2023-04-04T13:32:57;98780.94;;;4.45;43.86
5062;BME280;2351;50.812;12.872;2023-04-04T13:35:29;98774.41;;;4.35;42.29
5062;BME280;2351;50.812;12.872;2023-04-04T13:38:01;98765.25;;;4.80;43.06
5062;BME280;2351;50.812;12.872;2023-04-04T13:40:32;98774.06;;;5.15;41.97
5062;BME280;2351;50.812;12.872;2023-04-04T13:43:05;98771.25;;;4.82;42.31
5062;BME280;2351;50.812;12.872;2023-04-04T13:45:37;98769.41;;;3.92;43.73
5062;BME280;2351;50.812;12.872;2023-04-04T13:48:09;98758.84;;;3.94;43.30